Time;durP1;ratioP1;P1;durP2;ratioP2;P2;SDS_P1;SDS_P2;PMS_P1;PMS_P2;Temp;Humidity;BMP_temperature;BMP_pressure;BME280_temperature;BME280_humidity;BME280_pressure;Samples;Min_cycle;Max_cycle;Signal;HPM_P1;HPM_P2
2023/10/26 00:01:26;;;;;;;0.63;0.63;;;2.80;99.90;;;;;;5110741;28;20570;-71
2023/10/26 00:03:52;;;;;;;0.52;0.52;;;2.80;99.90;;;;;;5110593;28;20199;-71
2023/10/26 00:06:18;;;;;;;0.50;0.50;;;2.80;99.90;;;;;;5091896;28;20359;-71
2023/10/26 00:08:43;;;;;;;0.47;0.47;;;2.80;99.90;;;;;;5111091;28;20195;-72
2023/10/26 00:11:09;;;;;;;0.52;0.52;;;2.80;99.90;;;;;;5110676;28;20670;-71
2023/10/26 00:13:42;;;;;;;0.60;0.60;;;2.80;99.90;;;;;;5110689;28;20537;-71
2023/10/26 00:16:08;;;;;;;1.35;0.85;;;2.80;99.90;;;;;;5110624;28;20682;-71
2023/10/26 00:18:33;;;;;;;0.90;0.90;;;2.80;99.90;;;;;;5110639;28;20191;-71
2023/10/26 00:21:00;;;;;;;0.60;0.60;;;2.80;99.90;;;;;;5110517;28;20206;-71
2023/10/26 00:23:26;;;;;;;0.50;0.50;;;2.80;99.90;;;;;;5091125;28;20558;-71
2023/10/26 00:25:52;;;;;;;0.70;0.70;;;2.80;99.90;;;;;;5091895;28;20291;-72
2023/10/26 00:28:17;;;;;;;0.50;0.50;;;2.80;99.90;;;;;;5091936;28;20306;-71
2023/10/26 00:30:43;;;;;;;0.60;0.60;;;2.80;99.90;;;;;;5110020;28;20244;-71
2023/10/26 00:33:09;;;;;;;0.55;0.55;;;2.80;99.90;;;;;;5110257;28;20199;-71
2023/10/26 00:35:34;;;;;;;0.52;0.52;;;2.80;99.90;;;;;;5110135;28;20196;-71
2023/10/26 00:38:00;;;;;;;0.65;0.65;;;2.80;99.90;;;;;;5110428;28;20229;-71
2023/10/26 00:40:26;;;;;;;0.57;0.57;;;2.80;99.90;;;;;;5110093;28;20199;-72
2023/10/26 00:42:58;;;;;;;0.60;0.60;;;2.80;99.90;;;;;;5109998;28;20194;-71
2023/10/26 00:45:25;;;;;;;0.50;0.50;;;2.80;99.90;;;;;;5109598;28;20195;-71
2023/10/26 00:47:51;;;;;;;0.60;0.60;;;2.80;99.90;;;;;;5109969;28;20737;-72
2023/10/26 00:50:17;;;;;;;0.60;0.60;;;2.80;99.90;;;;;;5110144;28;20244;-71
2023/10/26 00:52:42;;;;;;;0.70;0.70;;;2.80;99.90;;;;;;5109842;28;20214;-71
2023/10/26 00:55:09;;;;;;;0.60;0.60;;;2.80;99.90;;;;;;5110068;28;20242;-70
2023/10/26 00:57:35;;;;;;;0.60;0.60;;;2.70;99.90;;;;;;5109612;28;20212;-67
2023/10/26 01:00:02;;;;;;;0.60;0.60;;;2.70;99.90;;;;;;5109954;28;20183;-68
2023/10/26 01:02:29;;;;;;;0.57;0.57;;;2.70;99.90;;;;;;5109465;28;20681;-68
2023/10/26 01:04:54;;;;;;;0.50;0.50;;;2.70;99.90;;;;;;5109040;28;20206;-68
2023/10/26 01:07:20;;;;;;;0.70;0.70;;;2.70;99.90;;;;;;5109051;28;21043;-68
2023/10/26 01:09:47;;;;;;;0.70;0.70;;;2.80;99.90;;;;;;5109666;28;20187;-68
2023/10/26 01:12:13;;;;;;;0.60;0.60;;;2.70;99.90;;;;;;5091085;28;20203;-67
2023/10/26 01:14:39;;;;;;;0.50;0.50;;;2.70;99.90;;;;;;5109421;28;21258;-68
2023/10/26 01:17:05;;;;;;;0.50;0.50;;;2.70;99.90;;;;;;5108281;28;20724;-67
2023/10/26 01:19:42;;;;;;;0.60;0.60;;;2.70;99.90;;;;;;5109117;28;20210;-69
2023/10/26 01:22:08;;;;;;;0.55;0.55;;;2.70;99.90;;;;;;5109678;28;20249;-67
2023/10/26 01:24:34;;;;;;;0.60;0.60;;;2.70;99.90;;;;;;5109516;28;20620;-69
2023/10/26 01:27:00;;;;;;;0.63;0.63;;;2.70;99.90;;;;;;5109584;28;20195;-73
2023/10/26 01:29:25;;;;;;;0.60;0.60;;;2.70;99.90;;;;;;5109354;28;20230;-68
2023/10/26 01:31:51;;;;;;;0.65;0.65;;;2.70;99.90;;;;;;5109753;28;20658;-69
2023/10/26 01:34:17;;;;;;;0.70;0.70;;;2.70;99.90;;;;;;5109799;28;20207;-69
2023/10/26 01:36:43;;;;;;;0.60;0.60;;;2.70;99.90;;;;;;5109067;28;20238;-68
2023/10/26 01:39:08;;;;;;;0.63;0.63;;;2.70;99.90;;;;;;5109521;28;20195;-68
2023/10/26 01:41:34;;;;;;;0.52;0.52;;;2.70;99.90;;;;;;5109192;28;20200;-71
2023/10/26 01:44:01;;;;;;;0.60;0.60;;;2.70;99.90;;;;;;5109527;28;20211;-68
2023/10/26 01:46:26;;;;;;;0.55;0.55;;;2.60;99.90;;;;;;5109126;28;20199;-68
2023/10/26 01:48:52;;;;;;;0.60;0.60;;;2.60;99.90;;;;;;5109332;28;20245;-70
2023/10/26 01:51:18;;;;;;;0.50;0.50;;;2.60;99.90;;;;;;5109257;28;20196;-69
2023/10/26 01:53:43;;;;;;;0.60;0.60;;;2.60;99.90;;;;;;5108454;28;20556;-69
2023/10/26 01:56:09;;;;;;;0.70;0.70;;;2.60;99.90;;;;;;5088637;28;20245;-67
2023/10/26 01:58:34;;;;;;;0.60;0.60;;;2.60;99.90;;;;;;5088838;28;20203;-70
2023/10/26 02:01:01;;;;;;;0.60;0.60;;;2.60;99.90;;;;;;5088857;28;20203;-67
2023/10/26 02:03:26;;;;;;;0.70;0.70;;;2.60;99.90;;;;;;5088394;28;20196;-68
2023/10/26 02:05:52;;;;;;;0.60;0.60;;;2.50;99.90;;;;;;5088709;28;20193;-68
2023/10/26 02:08:18;;;;;;;0.68;0.68;;;2.60;99.90;;;;;;5088910;28;20232;-70
2023/10/26 02:10:43;;;;;;;0.60;0.60;;;2.60;99.90;;;;;;5088839;28;20605;-71
2023/10/26 02:13:10;;;;;;;0.60;0.60;;;2.50;99.90;;;;;;5078025;28;20684;-70
2023/10/26 02:15:35;;;;;;;0.68;0.68;;;2.50;99.90;;;;;;5067068;28;20655;-70
2023/10/26 02:18:01;;;;;;;0.50;0.50;;;2.50;99.90;;;;;;5069717;28;20205;-71
2023/10/26 02:20:27;;;;;;;0.52;0.52;;;2.50;99.90;;;;;;5088428;28;20184;-71
2023/10/26 02:22:53;;;;;;;0.60;0.60;;;2.40;99.90;;;;;;5087307;28;20192;-71
2023/10/26 02:25:20;;;;;;;0.70;0.70;;;2.40;99.90;;;;;;5088493;28;20195;-71
2023/10/26 02:27:46;;;;;;;0.70;0.70;;;2.30;99.90;;;;;;5087304;28;21120;-70
2023/10/26 02:30:12;;;;;;;0.60;0.60;;;2.30;99.90;;;;;;5092544;28;20295;-71
2023/10/26 02:32:39;;;;;;;0.70;0.70;;;2.30;99.90;;;;;;5092346;28;20192;-71
2023/10/26 02:35:05;;;;;;;0.60;0.60;;;2.20;99.90;;;;;;5092549;28;20196;-71
2023/10/26 02:37:33;;;;;;;0.70;0.70;;;2.20;99.90;;;;;;5092020;28;20690;-71
2023/10/26 02:39:59;;;;;;;0.60;0.60;;;2.20;99.90;;;;;;5092542;28;20888;-71
2023/10/26 02:42:24;;;;;;;0.50;0.50;;;2.10;99.90;;;;;;5090689;28;20279;-71
2023/10/26 02:44:50;;;;;;;0.70;0.70;;;2.10;99.90;;;;;;5092010;28;20203;-71
2023/10/26 02:47:15;;;;;;;0.60;0.60;;;2.10;99.90;;;;;;5090461;28;20212;-71
2023/10/26 02:49:41;;;;;;;0.60;0.60;;;2.00;99.90;;;;;;5091709;28;20192;-71
2023/10/26 02:52:07;;;;;;;0.60;0.60;;;2.00;99.90;;;;;;5090444;28;20208;-71
2023/10/26 02:54:32;;;;;;;0.70;0.70;;;2.10;99.90;;;;;;5084435;28;20315;-70
2023/10/26 02:56:58;;;;;;;0.80;0.80;;;2.00;99.90;;;;;;5071213;28;20252;-71
2023/10/26 02:59:24;;;;;;;0.60;0.60;;;2.00;99.90;;;;;;5053243;28;20201;-71
2023/10/26 03:01:49;;;;;;;0.50;0.50;;;2.00;99.90;;;;;;5061886;28;20727;-71
2023/10/26 03:04:15;;;;;;;0.60;0.60;;;1.90;99.90;;;;;;5052924;28;20205;-70
2023/10/26 03:06:41;;;;;;;0.60;0.60;;;1.90;99.90;;;;;;5071047;28;20200;-71
2023/10/26 03:09:10;;;;;;;0.60;0.60;;;1.90;99.90;;;;;;5063186;28;20325;-70
2023/10/26 03:11:36;;;;;;;0.50;0.50;;;1.90;99.90;;;;;;5051234;28;20231;-71
2023/10/26 03:14:02;;;;;;;0.60;0.60;;;1.90;99.90;;;;;;5033013;28;20645;-71
2023/10/26 03:16:28;;;;;;;0.52;0.52;;;1.90;99.90;;;;;;5070112;28;20654;-71
2023/10/26 03:18:54;;;;;;;0.65;0.65;;;1.90;99.90;;;;;;5071213;28;20683;-71
2023/10/26 03:21:20;;;;;;;0.60;0.60;;;1.90;99.90;;;;;;5052840;28;20663;-71
2023/10/26 03:23:52;;;;;;;0.80;0.80;;;1.80;99.90;;;;;;5089196;28;20261;-71
2023/10/26 03:26:18;;;;;;;0.70;0.70;;;1.80;99.90;;;;;;5091278;28;20283;-71
2023/10/26 03:28:44;;;;;;;0.70;0.70;;;1.70;99.90;;;;;;5091160;28;20200;-71
2023/10/26 03:31:11;;;;;;;0.60;0.60;;;1.70;99.90;;;;;;5091299;28;20282;-71
2023/10/26 03:33:37;;;;;;;0.60;0.60;;;1.70;99.90;;;;;;5084320;28;20250;-71
2023/10/26 03:36:03;;;;;;;0.60;0.60;;;1.70;99.90;;;;;;5070763;28;20280;-71
2023/10/26 03:38:29;;;;;;;0.70;0.70;;;1.70;99.90;;;;;;5070743;28;20204;-71
2023/10/26 03:40:55;;;;;;;0.50;0.50;;;1.70;99.90;;;;;;5070359;28;20628;-71
2023/10/26 03:43:20;;;;;;;0.60;0.60;;;1.70;99.90;;;;;;5070468;28;20193;-71
2023/10/26 03:45:46;;;;;;;0.60;0.60;;;1.70;99.90;;;;;;5070539;28;20264;-71
2023/10/26 03:48:12;;;;;;;0.52;0.52;;;1.60;99.90;;;;;;5052492;28;20303;-71
2023/10/26 03:50:37;;;;;;;0.70;0.70;;;1.70;99.90;;;;;;5052283;28;20207;-71
2023/10/26 03:53:03;;;;;;;0.63;0.63;;;1.60;99.90;;;;;;5070233;28;20201;-71
2023/10/26 03:55:29;;;;;;;0.57;0.57;;;1.60;99.90;;;;;;5066985;28;20259;-71
2023/10/26 03:57:54;;;;;;;0.70;0.70;;;1.60;99.90;;;;;;5090487;28;20212;-71
2023/10/26 04:00:20;;;;;;;0.68;0.68;;;1.50;99.90;;;;;;5072019;28;20220;-70
2023/10/26 04:02:46;;;;;;;0.68;0.68;;;1.60;99.90;;;;;;5090520;28;20188;-70
2023/10/26 04:05:12;;;;;;;0.70;0.70;;;1.60;99.90;;;;;;5090011;28;20596;-71
2023/10/26 04:07:40;;;;;;;0.70;0.70;;;1.60;99.90;;;;;;5072107;28;20790;-71
2023/10/26 04:10:07;;;;;;;0.70;0.70;;;1.60;99.90;;;;;;5072117;28;20196;-71
2023/10/26 04:12:33;;;;;;;0.60;0.60;;;1.50;99.90;;;;;;5071895;28;20663;-71
2023/10/26 04:14:59;;;;;;;1.05;1.05;;;1.50;99.90;;;;;;5090344;28;20196;-71
2023/10/26 04:17:24;;;;;;;0.50;0.50;;;1.50;99.90;;;;;;5071945;28;20357;-71
2023/10/26 04:19:50;;;;;;;0.60;0.60;;;1.40;99.90;;;;;;5088663;28;20685;-71
2023/10/26 04:22:16;;;;;;;0.85;0.85;;;1.40;99.90;;;;;;5110773;28;20191;-70
2023/10/26 04:24:41;;;;;;;0.70;0.70;;;1.40;99.90;;;;;;5110617;28;20582;-71
2023/10/26 04:27:07;;;;;;;0.70;0.70;;;1.40;99.90;;;;;;5092644;28;20199;-69
2023/10/26 04:29:33;;;;;;;0.68;0.68;;;1.40;99.90;;;;;;5106322;28;20659;-68
2023/10/26 04:31:59;;;;;;;0.65;0.65;;;1.30;99.90;;;;;;5089891;28;20690;-68
2023/10/26 04:34:25;;;;;;;0.63;0.63;;;1.30;99.90;;;;;;5089653;28;20198;-69
2023/10/26 04:36:51;;;;;;;0.80;0.80;;;1.30;99.90;;;;;;5089706;28;20207;-69
2023/10/26 04:39:17;;;;;;;0.60;0.60;;;1.30;99.90;;;;;;5089778;28;20202;-68
2023/10/26 04:41:43;;;;;;;0.60;0.60;;;1.30;99.90;;;;;;5089664;28;20625;-67
2023/10/26 04:44:09;;;;;;;0.80;0.80;;;1.30;99.90;;;;;;5089806;28;20207;-69
2023/10/26 04:46:34;;;;;;;2.08;1.80;;;1.30;99.90;;;;;;5089518;28;20196;-68
2023/10/26 04:49:00;;;;;;;0.80;0.80;;;1.30;99.90;;;;;;5089742;28;20231;-68
2023/10/26 04:51:25;;;;;;;1.88;1.52;;;1.40;99.90;;;;;;5089500;28;20564;-69
2023/10/26 04:53:51;;;;;;;0.77;0.77;;;1.40;99.90;;;;;;5089466;28;20197;-67
2023/10/26 04:56:17;;;;;;;1.08;1.08;;;1.40;99.90;;;;;;5089586;28;20295;-67
2023/10/26 04:58:43;;;;;;;0.80;0.80;;;1.40;99.90;;;;;;5089376;28;20184;-68
2023/10/26 05:01:09;;;;;;;0.80;0.80;;;1.40;99.90;;;;;;5084941;28;20205;-68
2023/10/26 05:03:37;;;;;;;0.60;0.60;;;1.50;99.90;;;;;;5075512;28;20186;-68
2023/10/26 05:06:02;;;;;;;3.63;1.70;;;1.50;99.90;;;;;;5089253;28;20195;-68
2023/10/26 05:08:28;;;;;;;1.48;1.38;;;1.50;99.90;;;;;;5089123;28;20203;-67
2023/10/26 05:10:54;;;;;;;0.85;0.85;;;1.50;99.90;;;;;;5089251;28;20189;-68
2023/10/26 05:13:19;;;;;;;0.60;0.60;;;1.50;99.90;;;;;;5089249;28;20214;-67
2023/10/26 05:15:45;;;;;;;0.88;0.88;;;1.50;99.90;;;;;;5103245;28;20195;-69
2023/10/26 05:18:11;;;;;;;0.75;0.75;;;1.40;99.90;;;;;;5108162;28;20211;-71
2023/10/26 05:20:37;;;;;;;0.63;0.63;;;1.40;99.90;;;;;;5087021;28;20290;-72
2023/10/26 05:23:03;;;;;;;0.65;0.65;;;1.30;99.90;;;;;;5108997;28;20191;-71
2023/10/26 05:25:30;;;;;;;0.70;0.70;;;1.40;99.90;;;;;;5068480;28;20269;-72
2023/10/26 05:27:55;;;;;;;0.57;0.57;;;1.40;99.90;;;;;;5069388;28;20283;-72
2023/10/26 05:30:21;;;;;;;0.63;0.63;;;1.40;99.90;;;;;;5068914;28;20327;-72
2023/10/26 05:32:46;;;;;;;0.70;0.70;;;1.40;99.90;;;;;;5069276;28;20193;-72
2023/10/26 05:35:14;;;;;;;0.68;0.68;;;1.40;99.90;;;;;;5068840;28;20207;-72
2023/10/26 05:37:39;;;;;;;1.15;1.15;;;1.50;99.90;;;;;;5050747;28;20249;-69
2023/10/26 05:40:06;;;;;;;0.60;0.60;;;1.50;99.90;;;;;;5069056;28;20223;-67
2023/10/26 05:42:31;;;;;;;0.60;0.60;;;1.50;99.90;;;;;;5068584;28;20204;-67
2023/10/26 05:44:57;;;;;;;0.50;0.50;;;1.60;99.90;;;;;;5050810;28;20200;-69
2023/10/26 05:47:23;;;;;;;1.15;1.05;;;1.60;99.90;;;;;;5068638;28;20571;-68
2023/10/26 05:49:49;;;;;;;1.00;1.00;;;1.60;99.90;;;;;;5068944;28;20664;-68
2023/10/26 05:52:14;;;;;;;0.70;0.70;;;1.50;99.90;;;;;;5050770;28;20263;-67
2023/10/26 05:54:40;;;;;;;0.75;0.75;;;1.50;99.90;;;;;;5068573;28;20285;-69
2023/10/26 05:57:06;;;;;;;0.68;0.68;;;1.60;99.90;;;;;;5070417;28;20223;-67
2023/10/26 05:59:32;;;;;;;0.90;0.88;;;1.60;99.90;;;;;;5088903;28;20203;-69
2023/10/26 06:01:58;;;;;;;2.08;1.38;;;1.60;99.90;;;;;;5089115;28;20538;-67
2023/10/26 06:04:24;;;;;;;0.70;0.70;;;1.60;99.90;;;;;;5091247;28;20225;-67
2023/10/26 06:06:50;;;;;;;0.63;0.63;;;1.60;99.90;;;;;;5093086;28;20283;-68
2023/10/26 06:09:16;;;;;;;0.60;0.60;;;1.60;99.90;;;;;;5092977;28;20325;-67
2023/10/26 06:11:41;;;;;;;0.90;0.90;;;1.70;99.90;;;;;;5092424;28;20192;-68
2023/10/26 06:14:08;;;;;;;0.70;0.70;;;1.70;99.90;;;;;;5092677;28;20207;-67
2023/10/26 06:16:34;;;;;;;0.88;0.82;;;1.70;99.90;;;;;;5092600;28;20296;-71
2023/10/26 06:19:00;;;;;;;0.60;0.60;;;1.70;99.90;;;;;;5092764;28;20273;-67
2023/10/26 06:21:27;;;;;;;0.80;0.80;;;1.70;99.90;;;;;;5092487;28;20653;-67
2023/10/26 06:23:53;;;;;;;1.35;1.25;;;1.70;99.90;;;;;;5092531;28;20284;-67
2023/10/26 06:26:19;;;;;;;0.80;0.80;;;1.70;99.90;;;;;;5074162;28;20196;-69
2023/10/26 06:28:46;;;;;;;0.80;0.80;;;1.80;99.90;;;;;;5092712;28;20192;-68
2023/10/26 06:31:16;;;;;;;0.75;0.75;;;1.80;99.90;;;;;;5074759;28;20635;-67
2023/10/26 06:33:42;;;;;;;1.35;1.25;;;1.80;99.90;;;;;;5092420;28;20192;-68
2023/10/26 06:36:09;;;;;;;0.65;0.65;;;1.80;99.90;;;;;;5092388;28;20733;-69
2023/10/26 06:38:40;;;;;;;1.45;1.23;;;1.80;99.90;;;;;;5092194;28;20224;-69
2023/10/26 06:41:10;;;;;;;1.45;1.38;;;1.80;99.90;;;;;;5092213;28;20196;-67
2023/10/26 06:43:37;;;;;;;0.82;0.82;;;1.90;99.90;;;;;;5091963;28;20196;-68
2023/10/26 06:46:03;;;;;;;2.08;1.85;;;1.90;99.90;;;;;;5092265;28;20200;-67
2023/10/26 06:48:29;;;;;;;1.00;1.00;;;1.90;99.90;;;;;;5091910;28;20212;-72
2023/10/26 06:51:02;;;;;;;1.38;1.27;;;1.90;99.90;;;;;;5092246;28;20647;-72
2023/10/26 06:53:28;;;;;;;0.85;0.80;;;1.90;99.90;;;;;;5091656;28;20207;-71
2023/10/26 06:55:54;;;;;;;1.50;1.40;;;1.90;99.90;;;;;;5091883;28;20248;-72
2023/10/26 06:58:20;;;;;;;1.25;1.15;;;2.00;99.90;;;;;;5092032;28;20270;-72
2023/10/26 07:00:46;;;;;;;0.98;0.93;;;2.00;99.90;;;;;;5073804;28;20207;-72
2023/10/26 07:03:12;;;;;;;0.70;0.70;;;2.00;99.90;;;;;;5091709;28;20321;-72
2023/10/26 07:05:38;;;;;;;0.57;0.57;;;2.00;99.90;;;;;;5091706;28;20326;-71
2023/10/26 07:08:04;;;;;;;0.60;0.60;;;2.00;99.90;;;;;;5073944;28;20621;-72
2023/10/26 07:10:31;;;;;;;0.60;0.60;;;2.10;99.90;;;;;;5092485;28;20200;-72
2023/10/26 07:12:56;;;;;;;0.55;0.55;;;2.10;99.90;;;;;;5112143;28;20669;-72
2023/10/26 07:15:22;;;;;;;0.60;0.60;;;2.10;99.90;;;;;;5110663;28;20195;-72
2023/10/26 07:17:48;;;;;;;0.50;0.50;;;2.10;99.90;;;;;;5111856;28;20207;-71
2023/10/26 07:20:13;;;;;;;0.68;0.68;;;2.10;99.90;;;;;;5071640;28;20664;-71
2023/10/26 07:22:40;;;;;;;0.70;0.70;;;2.10;99.90;;;;;;5071228;28;20189;-72
2023/10/26 07:25:06;;;;;;;0.60;0.60;;;2.20;99.90;;;;;;5053246;28;20201;-72
2023/10/26 07:27:32;;;;;;;0.65;0.65;;;2.20;99.90;;;;;;5070899;28;20201;-72
2023/10/26 07:29:59;;;;;;;0.60;0.60;;;2.30;99.90;;;;;;5052954;28;20680;-71
2023/10/26 07:32:25;;;;;;;0.80;0.80;;;2.30;99.90;;;;;;5070717;28;20200;-73
2023/10/26 07:34:58;;;;;;;0.70;0.70;;;2.30;99.90;;;;;;5071010;28;20563;-73
2023/10/26 07:37:24;;;;;;;0.60;0.60;;;2.30;99.90;;;;;;5070551;28;20209;-70
2023/10/26 07:39:50;;;;;;;0.70;0.70;;;2.40;99.90;;;;;;5052076;28;20197;-71
2023/10/26 07:42:16;;;;;;;0.70;0.70;;;2.40;99.90;;;;;;5070183;28;20287;-71
2023/10/26 07:44:41;;;;;;;2.28;1.77;;;2.40;99.90;;;;;;5069910;28;20272;-70
2023/10/26 07:47:10;;;;;;;0.70;0.70;;;2.40;99.90;;;;;;5070155;28;20668;-71
2023/10/26 07:49:36;;;;;;;0.70;0.70;;;2.40;99.90;;;;;;5069602;28;20189;-71
2023/10/26 07:52:01;;;;;;;0.68;0.68;;;2.40;99.90;;;;;;5070012;28;20196;-71
2023/10/26 07:54:27;;;;;;;0.80;0.80;;;2.40;99.90;;;;;;5069529;28;20751;-71
2023/10/26 07:56:53;;;;;;;0.60;0.60;;;2.50;99.90;;;;;;5082092;28;20235;-71
2023/10/26 07:59:18;;;;;;;0.50;0.50;;;2.50;99.90;;;;;;5090565;28;20198;-72
2023/10/26 08:01:44;;;;;;;0.68;0.68;;;2.50;99.90;;;;;;5072236;28;20231;-72
2023/10/26 08:04:10;;;;;;;0.60;0.60;;;2.60;99.90;;;;;;5078882;28;20205;-72
2023/10/26 08:06:36;;;;;;;0.60;0.60;;;2.60;99.90;;;;;;5051721;28;20201;-72
2023/10/26 08:09:02;;;;;;;0.50;0.50;;;2.70;99.90;;;;;;5070171;28;20189;-73
2023/10/26 08:11:28;;;;;;;0.50;0.50;;;2.70;99.90;;;;;;5088540;28;20276;-73
2023/10/26 08:13:53;;;;;;;0.57;0.57;;;2.80;99.90;;;;;;5110991;28;20191;-72
2023/10/26 08:16:19;;;;;;;0.57;0.57;;;2.80;99.90;;;;;;5072889;28;20197;-72
2023/10/26 08:18:44;;;;;;;0.60;0.60;;;2.90;99.90;;;;;;5070216;28;20185;-73
2023/10/26 08:21:10;;;;;;;0.60;0.60;;;3.00;99.90;;;;;;5070243;28;20656;-73
2023/10/26 08:23:36;;;;;;;0.60;0.60;;;3.10;99.90;;;;;;5069921;28;20656;-72
2023/10/26 08:26:07;;;;;;;0.50;0.50;;;3.20;99.90;;;;;;5069888;28;20303;-73
2023/10/26 08:28:33;;;;;;;0.52;0.52;;;3.20;99.90;;;;;;5069760;28;20192;-73
2023/10/26 08:31:00;;;;;;;0.77;0.77;;;3.30;99.90;;;;;;5069927;28;20228;-73
2023/10/26 08:33:27;;;;;;;0.60;0.60;;;3.30;99.90;;;;;;5051737;28;20660;-73
2023/10/26 08:35:52;;;;;;;0.60;0.60;;;3.30;99.90;;;;;;5051920;28;20208;-73
2023/10/26 08:38:18;;;;;;;0.50;0.50;;;3.30;99.90;;;;;;5069628;28;20212;-72
2023/10/26 08:40:54;;;;;;;0.60;0.60;;;3.30;99.90;;;;;;5069919;28;20188;-72
2023/10/26 08:43:21;;;;;;;1.17;0.95;;;3.30;99.90;;;;;;5069593;28;20904;-73
2023/10/26 08:45:47;;;;;;;0.60;0.60;;;3.30;99.90;;;;;;5070644;28;20671;-73
2023/10/26 08:48:16;;;;;;;0.73;0.73;;;3.30;99.90;;;;;;5090113;28;20206;-73
2023/10/26 08:50:42;;;;;;;0.80;0.80;;;3.40;99.90;;;;;;5089599;28;20199;-73
2023/10/26 08:53:08;;;;;;;0.70;0.70;;;3.50;99.90;;;;;;5089747;28;20279;-73
2023/10/26 08:55:39;;;;;;;1.20;1.15;;;3.60;99.90;;;;;;5089519;28;20687;-73
2023/10/26 08:58:05;;;;;;;0.70;0.70;;;3.70;99.90;;;;;;5071500;28;20285;-71
2023/10/26 09:00:30;;;;;;;0.63;0.63;;;3.80;99.90;;;;;;5089364;28;20655;-72
2023/10/26 09:02:56;;;;;;;0.80;0.80;;;3.80;99.90;;;;;;5088415;28;20176;-71
2023/10/26 09:05:23;;;;;;;0.60;0.60;;;3.90;99.90;;;;;;5069214;28;20196;-71
2023/10/26 09:07:51;;;;;;;0.63;0.63;;;4.00;99.90;;;;;;5089423;28;20239;-72
2023/10/26 09:10:37;;;;;;;0.70;0.70;;;4.10;99.90;;;;;;5109791;28;20229;-72
2023/10/26 09:13:05;;;;;;;0.60;0.60;;;4.20;99.90;;;;;;5068665;28;20255;-73
2023/10/26 09:15:47;;;;;;;0.60;0.60;;;4.20;99.90;;;;;;5068715;28;20667;-73
2023/10/26 09:18:15;;;;;;;0.68;0.68;;;4.30;99.90;;;;;;5069359;28;20622;-71
2023/10/26 09:20:41;;;;;;;0.60;0.60;;;4.50;99.90;;;;;;5068691;28;20204;-72
2023/10/26 09:23:07;;;;;;;0.50;0.50;;;4.50;99.90;;;;;;5050935;28;20215;-71
2023/10/26 09:25:33;;;;;;;0.60;0.60;;;4.40;99.90;;;;;;5050614;28;20570;-71
2023/10/26 09:28:05;;;;;;;0.65;0.65;;;4.60;99.90;;;;;;5068977;28;20200;-71
2023/10/26 09:30:32;;;;;;;0.52;0.52;;;4.60;99.90;;;;;;5050741;28;20208;-71
2023/10/26 09:32:59;;;;;;;0.60;0.60;;;4.50;99.90;;;;;;5069275;28;20189;-71
2023/10/26 09:35:29;;;;;;;0.60;0.60;;;4.50;99.90;;;;;;5068927;28;20205;-71
2023/10/26 09:37:56;;;;;;;0.70;0.70;;;4.50;99.90;;;;;;5069276;28;20231;-71
2023/10/26 09:40:23;;;;;;;0.60;0.60;;;4.50;99.90;;;;;;5072848;28;20188;-71
2023/10/26 09:42:50;;;;;;;0.50;0.50;;;4.50;99.90;;;;;;5074516;28;20196;-71
2023/10/26 09:45:19;;;;;;;0.70;0.70;;;4.50;99.90;;;;;;5075163;28;20195;-72
2023/10/26 09:47:46;;;;;;;0.60;0.60;;;4.50;99.90;;;;;;5075344;28;20204;-71
2023/10/26 09:50:13;;;;;;;0.60;0.60;;;4.60;99.90;;;;;;5093013;28;20775;-72
2023/10/26 09:52:41;;;;;;;0.70;0.70;;;4.70;99.90;;;;;;5093055;28;20292;-71
2023/10/26 09:55:10;;;;;;;0.50;0.50;;;4.70;99.90;;;;;;5093318;28;20270;-71
2023/10/26 09:57:44;;;;;;;0.50;0.50;;;4.60;99.90;;;;;;5074479;28;20227;-72
2023/10/26 10:00:13;;;;;;;0.60;0.60;;;4.80;99.90;;;;;;5092977;28;20227;-72
2023/10/26 10:02:39;;;;;;;0.60;0.60;;;4.70;99.90;;;;;;5090354;28;20200;-71
2023/10/26 10:05:05;;;;;;;0.47;0.47;;;4.90;99.90;;;;;;5112275;28;20207;-71
2023/10/26 10:07:41;;;;;;;0.60;0.60;;;5.00;99.90;;;;;;5105013;28;20617;-72
2023/10/26 10:10:09;;;;;;;0.55;0.55;;;5.10;99.90;;;;;;5074575;28;20554;-71
2023/10/26 10:12:36;;;;;;;0.55;0.55;;;5.30;99.90;;;;;;5092866;28;20283;-71
2023/10/26 10:15:13;;;;;;;0.60;0.60;;;5.30;99.90;;;;;;5092696;28;20200;-72
2023/10/26 10:17:44;;;;;;;0.60;0.60;;;5.40;99.90;;;;;;5092360;28;20232;-71
2023/10/26 10:20:19;;;;;;;1.05;0.95;;;5.50;99.90;;;;;;5074202;28;20200;-71
2023/10/26 10:22:48;;;;;;;0.60;0.60;;;5.40;99.90;;;;;;5092676;28;20199;-71
2023/10/26 10:25:17;;;;;;;0.68;0.68;;;5.20;99.90;;;;;;5092299;28;20269;-71
2023/10/26 10:27:49;;;;;;;0.50;0.50;;;5.30;99.90;;;;;;5092283;28;20211;-72
2023/10/26 10:30:18;;;;;;;0.60;0.60;;;5.30;99.90;;;;;;5092574;28;20203;-71
2023/10/26 10:32:44;;;;;;;2.42;1.25;;;5.40;99.90;;;;;;5092416;28;20696;-72
2023/10/26 10:35:43;;;;;;;0.88;0.88;;;5.30;99.90;;;;;;5092310;28;20233;-71
2023/10/26 10:38:18;;;;;;;0.57;0.57;;;5.10;99.90;;;;;;5091693;28;20302;-72
2023/10/26 10:40:58;;;;;;;0.60;0.60;;;5.10;99.90;;;;;;5071618;28;20246;-72
2023/10/26 10:43:33;;;;;;;0.57;0.57;;;5.10;99.90;;;;;;5071497;28;20201;-72
2023/10/26 10:46:21;;;;;;;0.60;0.60;;;5.00;99.90;;;;;;5086635;28;20230;-72
2023/10/26 10:49:08;;;;;;;0.57;0.57;;;5.10;99.90;;;;;;5072656;28;20556;-71
2023/10/26 10:51:42;;;;;;;1.48;1.38;;;5.10;99.90;;;;;;5072857;28;20849;-71
2023/10/26 10:54:12;;;;;;;0.52;0.52;;;5.10;99.90;;;;;;5091446;28;20258;-71
2023/10/26 10:56:43;;;;;;;0.57;0.57;;;5.10;99.90;;;;;;5072920;28;20204;-71
2023/10/26 10:59:30;;;;;;;0.50;0.50;;;5.00;99.90;;;;;;5092191;28;20192;-71
2023/10/26 11:02:12;;;;;;;1.10;1.05;;;5.10;99.90;;;;;;5093964;28;20191;-72
2023/10/26 11:04:55;;;;;;;0.47;0.47;;;5.20;99.90;;;;;;5081005;28;20204;-72
2023/10/26 11:07:28;;;;;;;0.52;0.52;;;5.50;99.90;;;;;;5070945;28;20189;-72
2023/10/26 11:09:55;;;;;;;0.60;0.60;;;5.70;99.90;;;;;;5071303;28;20196;-72
2023/10/26 11:12:21;;;;;;;0.60;0.60;;;5.70;99.90;;;;;;5071240;28;20220;-72
2023/10/26 11:14:49;;;;;;;0.60;0.60;;;5.60;99.90;;;;;;5071218;28;20220;-71
2023/10/26 11:17:20;;;;;;;1.95;0.93;;;5.60;99.90;;;;;;5071325;28;20707;-72
2023/10/26 11:19:47;;;;;;;0.52;0.52;;;5.40;99.90;;;;;;5053074;28;20195;-71
2023/10/26 11:22:15;;;;;;;0.68;0.68;;;5.30;99.90;;;;;;5075234;28;20278;-72
2023/10/26 11:24:41;;;;;;;0.60;0.60;;;5.20;99.90;;;;;;5091156;28;20243;-72
2023/10/26 11:27:18;;;;;;;0.77;0.77;;;5.20;99.90;;;;;;5091464;28;20200;-72
2023/10/26 11:29:45;;;;;;;0.50;0.50;;;5.20;99.90;;;;;;5091271;28;20199;-71
2023/10/26 11:32:25;;;;;;;0.50;0.50;;;5.00;99.90;;;;;;5091097;28;20224;-71
2023/10/26 11:35:13;;;;;;;0.50;0.50;;;4.90;99.90;;;;;;5087073;28;20222;-71
2023/10/26 11:37:47;;;;;;;0.70;0.70;;;4.80;99.90;;;;;;5071015;28;20217;-74
2023/10/26 11:40:14;;;;;;;0.60;0.60;;;4.80;99.90;;;;;;5052665;28;20207;-74
2023/10/26 11:42:53;;;;;;;0.50;0.50;;;4.80;99.90;;;;;;5089314;28;20232;-73
2023/10/26 11:45:21;;;;;;;0.70;0.70;;;4.80;99.90;;;;;;5090580;28;20199;-73
2023/10/26 11:47:54;;;;;;;0.50;0.50;;;4.80;99.90;;;;;;5072647;28;20199;-74
2023/10/26 11:50:31;;;;;;;1.13;1.02;;;4.80;99.90;;;;;;5072378;28;20203;-74
2023/10/26 11:53:01;;;;;;;0.50;0.50;;;4.90;99.90;;;;;;5090839;28;20531;-74
2023/10/26 11:55:30;;;;;;;1.30;1.20;;;4.90;99.90;;;;;;5091055;28;20795;-73
2023/10/26 11:58:01;;;;;;;0.63;0.63;;;4.90;99.90;;;;;;5110962;28;20674;-72
2023/10/26 12:00:28;;;;;;;0.57;0.57;;;4.80;99.90;;;;;;5087483;28;20199;-73
2023/10/26 12:02:58;;;;;;;0.85;0.85;;;4.80;99.90;;;;;;5070737;28;20195;-73
2023/10/26 12:05:24;;;;;;;0.60;0.60;;;4.70;99.90;;;;;;5072354;28;20587;-73
2023/10/26 12:07:50;;;;;;;0.55;0.55;;;4.70;99.90;;;;;;5090421;28;20196;-74
2023/10/26 12:10:19;;;;;;;0.65;0.65;;;4.60;99.90;;;;;;5090599;28;20203;-73
2023/10/26 12:12:46;;;;;;;0.60;0.60;;;4.60;99.90;;;;;;5090770;28;20624;-73
2023/10/26 12:15:12;;;;;;;0.50;0.50;;;4.50;99.90;;;;;;5090162;28;20227;-73
2023/10/26 12:17:37;;;;;;;0.50;0.50;;;4.40;99.90;;;;;;5090021;28;20356;-72
2023/10/26 12:20:05;;;;;;;0.57;0.57;;;4.50;99.90;;;;;;5090248;28;20233;-73
2023/10/26 12:22:31;;;;;;;0.60;0.60;;;4.40;99.90;;;;;;5089804;28;20232;-73
2023/10/26 12:24:56;;;;;;;0.60;0.60;;;4.30;99.90;;;;;;5090238;28;20730;-73
2023/10/26 12:27:22;;;;;;;0.55;0.55;;;4.30;99.90;;;;;;5089877;28;20196;-72
2023/10/26 12:29:48;;;;;;;0.70;0.70;;;4.30;99.90;;;;;;5071972;28;20203;-73
2023/10/26 12:32:14;;;;;;;0.60;0.60;;;4.30;99.90;;;;;;5076593;28;20270;-72
2023/10/26 12:34:41;;;;;;;0.60;0.60;;;4.30;99.90;;;;;;5069855;28;20223;-73
2023/10/26 12:37:07;;;;;;;0.60;0.60;;;4.30;99.90;;;;;;5074100;28;20192;-73
2023/10/26 12:39:33;;;;;;;0.68;0.68;;;4.30;99.90;;;;;;5089931;28;20191;-73
2023/10/26 12:41:59;;;;;;;0.50;0.50;;;4.20;99.90;;;;;;5090067;28;20184;-73
2023/10/26 12:44:26;;;;;;;0.50;0.50;;;4.20;99.90;;;;;;5089884;28;20192;-72
2023/10/26 12:46:52;;;;;;;0.60;0.60;;;4.30;99.90;;;;;;5089798;28;20223;-73
2023/10/26 12:49:18;;;;;;;0.60;0.60;;;4.30;99.90;;;;;;5090000;28;20200;-67
2023/10/26 12:51:44;;;;;;;0.60;0.60;;;4.30;99.90;;;;;;5090518;28;20204;-69
2023/10/26 12:54:10;;;;;;;0.60;0.60;;;4.30;99.90;;;;;;5110132;28;20223;-68
2023/10/26 12:56:36;;;;;;;0.63;0.63;;;4.30;99.90;;;;;;5088679;28;20566;-67
2023/10/26 12:59:02;;;;;;;0.70;0.70;;;4.20;99.90;;;;;;5051349;28;20220;-69